createdAt,value
2022-11-22T00:00:42.306Z,1.79
2022-11-22T00:03:17.789Z,1.83
2022-11-22T00:05:47.561Z,1.88
2022-11-22T00:08:14.610Z,1.90
2022-11-22T00:10:41.989Z,1.92
2022-11-22T00:13:09.548Z,1.93
2022-11-22T00:15:39.451Z,1.91
2022-11-22T00:18:09.676Z,1.92
2022-11-22T00:20:37.259Z,1.85
2022-11-22T00:23:04.698Z,1.87
2022-11-22T00:25:32.251Z,1.85
2022-11-22T00:27:59.130Z,1.82
2022-11-22T00:30:26.376Z,1.82
2022-11-22T00:32:53.426Z,1.78
2022-11-22T00:35:20.790Z,1.75
2022-11-22T00:37:50.051Z,1.75
2022-11-22T00:40:17.377Z,1.68
2022-11-22T00:42:44.316Z,1.70
2022-11-22T00:45:12.085Z,1.50
2022-11-22T00:47:39.084Z,1.50
2022-11-22T00:50:06.706Z,1.50
2022-11-22T00:52:33.653Z,1.40
2022-11-22T00:55:00.933Z,1.41
2022-11-22T00:57:28.037Z,1.40
2022-11-22T00:59:55.313Z,1.39
2022-11-22T01:02:24.652Z,1.38
2022-11-22T01:04:51.927Z,1.17
2022-11-22T01:07:18.991Z,1.10
2022-11-22T01:09:48.824Z,1.04
2022-11-22T01:12:16.142Z,1.00
2022-11-22T01:14:43.464Z,0.91
2022-11-22T01:17:10.464Z,0.88
2022-11-22T01:19:40.044Z,0.90
2022-11-22T01:22:07.084Z,0.95
2022-11-22T01:24:34.458Z,0.91
2022-11-22T01:27:03.732Z,0.91
2022-11-22T01:29:31.454Z,0.96
2022-11-22T01:31:58.504Z,0.94
2022-11-22T01:34:30.451Z,0.96
2022-11-22T01:36:57.412Z,0.99
2022-11-22T01:39:24.659Z,1.03
2022-11-22T01:41:51.626Z,1.07
2022-11-22T01:44:28.478Z,1.12
2022-11-22T01:47:00.129Z,1.14
2022-11-22T01:50:05.194Z,1.12
2022-11-22T01:52:34.350Z,1.14
2022-11-22T01:55:09.522Z,1.17
2022-11-22T01:57:39.288Z,1.21
2022-11-22T02:00:14.793Z,1.26
2022-11-22T02:02:51.937Z,1.30
2022-11-22T02:05:22.926Z,1.32
2022-11-22T02:08:00.473Z,1.30
2022-11-22T02:10:30.146Z,1.36
2022-11-22T02:12:59.616Z,1.38
2022-11-22T02:15:27.111Z,1.43
2022-11-22T02:17:54.421Z,1.45
2022-11-22T02:20:23.942Z,1.46
2022-11-22T02:22:53.693Z,1.54
2022-11-22T02:25:42.116Z,1.55
2022-11-22T02:28:11.846Z,1.55
2022-11-22T02:30:40.413Z,1.59
2022-11-22T02:33:08.070Z,1.60
2022-11-22T02:35:35.640Z,1.61
2022-11-22T02:38:08.616Z,1.66
2022-11-22T02:40:44.984Z,1.67
2022-11-22T02:43:13.594Z,1.67
2022-11-22T02:45:41.029Z,1.70
2022-11-22T02:48:11.074Z,1.72
2022-11-22T02:50:38.628Z,1.75
2022-11-22T02:53:06.780Z,1.77
2022-11-22T02:55:34.087Z,1.83
2022-11-22T02:58:01.247Z,1.85
2022-11-22T03:00:28.535Z,1.88
2022-11-22T03:02:55.428Z,1.87
2022-11-22T03:05:25.222Z,1.91
2022-11-22T03:07:52.146Z,1.95
2022-11-22T03:10:21.988Z,1.98
2022-11-22T03:12:49.030Z,2.04
2022-11-22T03:15:16.430Z,2.06
2022-11-22T03:17:43.492Z,2.06
2022-11-22T03:20:10.848Z,2.15
2022-11-22T03:22:37.993Z,2.24
2022-11-22T03:25:05.918Z,2.35
2022-11-22T03:27:35.106Z,2.45
2022-11-22T03:30:02.357Z,2.57
2022-11-22T03:32:29.359Z,2.69
2022-11-22T03:34:56.614Z,2.74
2022-11-22T03:37:23.591Z,2.78
2022-11-22T03:39:50.948Z,2.83
2022-11-22T03:42:21.450Z,2.85
2022-11-22T03:44:49.845Z,2.89
2022-11-22T03:47:16.837Z,2.95
2022-11-22T03:49:44.086Z,2.96
2022-11-22T03:52:13.919Z,3.00
2022-11-22T03:54:44.097Z,3.06
2022-11-22T03:57:10.992Z,3.09
2022-11-22T03:59:38.224Z,3.12
2022-11-22T04:02:05.386Z,3.16
2022-11-22T04:04:34.072Z,3.14
2022-11-22T04:07:01.126Z,3.20
2022-11-22T04:09:31.242Z,3.21
2022-11-22T04:11:58.462Z,3.22
2022-11-22T04:14:44.594Z,3.25
2022-11-22T04:17:14.820Z,3.25
2022-11-22T04:20:02.031Z,3.29
2022-11-22T04:22:28.980Z,3.31
2022-11-22T04:25:14.664Z,3.36
2022-11-22T04:27:41.620Z,3.40
2022-11-22T04:30:09.186Z,3.41
2022-11-22T04:32:48.240Z,3.38
2022-11-22T04:35:17.011Z,3.44
2022-11-22T04:37:51.448Z,3.45
2022-11-22T04:40:21.354Z,3.46
2022-11-22T04:43:06.431Z,3.51
2022-11-22T04:45:35.932Z,3.55
2022-11-22T04:48:03.040Z,3.56
2022-11-22T04:50:50.667Z,3.62
2022-11-22T04:53:18.928Z,3.63
2022-11-22T04:55:47.437Z,3.66
2022-11-22T04:58:14.718Z,3.70
2022-11-22T05:00:44.767Z,3.75
2022-11-22T05:03:11.860Z,3.74
2022-11-22T05:05:41.125Z,3.79
2022-11-22T05:08:08.637Z,3.82
2022-11-22T05:10:57.524Z,3.83
2022-11-22T05:13:27.304Z,3.84
2022-11-22T05:15:55.466Z,3.84
2022-11-22T05:18:23.463Z,3.87
2022-11-22T05:20:51.363Z,3.91
2022-11-22T05:23:38.273Z,3.95
2022-11-22T05:26:06.446Z,3.96
2022-11-22T05:28:35.486Z,3.97
2022-11-22T05:31:10.375Z,3.93
2022-11-22T05:33:42.370Z,3.92
2022-11-22T05:36:12.915Z,3.99
2022-11-22T05:38:40.067Z,4.00
2022-11-22T05:41:10.230Z,4.03
2022-11-22T05:43:37.839Z,4.04
2022-11-22T05:46:09.200Z,4.08
2022-11-22T05:48:37.782Z,4.07
2022-11-22T05:51:10.680Z,4.10
2022-11-22T05:53:38.832Z,4.15
2022-11-22T05:56:08.514Z,4.11
2022-11-22T05:58:38.348Z,4.12
2022-11-22T06:01:08.689Z,4.15
2022-11-22T06:03:36.899Z,4.15
2022-11-22T06:06:05.873Z,4.15
2022-11-22T06:08:35.910Z,4.16
2022-11-22T06:11:32.411Z,4.18
2022-11-22T06:14:03.358Z,4.18
2022-11-22T06:16:30.778Z,4.17
2022-11-22T06:18:57.814Z,4.18
2022-11-22T06:21:26.571Z,4.22
2022-11-22T06:23:55.222Z,4.21
2022-11-22T06:26:24.163Z,4.20
2022-11-22T06:28:51.824Z,4.22
2022-11-22T06:31:25.187Z,4.28
2022-11-22T06:33:57.703Z,4.21
2022-11-22T06:36:35.286Z,4.23
2022-11-22T06:39:03.822Z,4.21
2022-11-22T06:41:36.330Z,4.27
2022-11-22T06:44:09.862Z,4.21
2022-11-22T06:46:37.594Z,4.23
2022-11-22T06:49:04.648Z,4.24
2022-11-22T06:51:32.694Z,4.26
2022-11-22T06:54:00.104Z,4.29
2022-11-22T06:56:29.849Z,4.30
2022-11-22T06:58:57.317Z,4.28
2022-11-22T07:01:27.554Z,4.33
2022-11-22T07:03:59.275Z,4.33
2022-11-22T07:06:29.265Z,4.36
2022-11-22T07:08:56.671Z,4.32
2022-11-22T07:11:29.057Z,4.38
2022-11-22T07:14:05.014Z,4.33
2022-11-22T07:16:35.937Z,4.34
2022-11-22T07:19:02.996Z,4.35
2022-11-22T07:21:32.735Z,4.30
2022-11-22T07:23:59.887Z,4.31
2022-11-22T07:26:27.934Z,4.35
2022-11-22T07:28:54.978Z,4.33
2022-11-22T07:31:22.559Z,4.24
2022-11-22T07:33:49.684Z,4.16
2022-11-22T07:36:19.525Z,4.00
2022-11-22T07:38:47.934Z,3.94
2022-11-22T07:41:16.635Z,3.83
2022-11-22T07:43:43.941Z,3.82
2022-11-22T07:46:23.514Z,3.73
2022-11-22T07:48:51.066Z,3.67
2022-11-22T07:51:18.899Z,3.56
2022-11-22T07:53:46.214Z,3.55
2022-11-22T07:56:14.039Z,3.58
2022-11-22T07:58:41.223Z,3.50
2022-11-22T08:01:10.632Z,3.45
2022-11-22T08:03:38.428Z,3.43
2022-11-22T08:06:09.041Z,3.39
2022-11-22T08:08:36.976Z,3.40
2022-11-22T08:11:06.050Z,3.31
2022-11-22T08:13:34.156Z,3.30
2022-11-22T08:16:05.633Z,3.28
2022-11-22T08:18:35.127Z,3.32
2022-11-22T08:21:08.220Z,3.36
2022-11-22T08:23:35.709Z,3.36
2022-11-22T08:26:03.959Z,3.40
2022-11-22T08:28:31.121Z,3.44
2022-11-22T08:31:06.998Z,3.41
2022-11-22T08:33:34.427Z,3.41
2022-11-22T08:36:01.798Z,3.41
2022-11-22T08:38:28.875Z,3.47
2022-11-22T08:40:56.724Z,3.47
2022-11-22T08:43:26.318Z,3.53
2022-11-22T08:45:57.029Z,3.49
2022-11-22T08:48:25.994Z,3.53
2022-11-22T08:50:55.342Z,3.52
2022-11-22T08:53:25.146Z,3.57
2022-11-22T08:55:53.235Z,3.60
2022-11-22T08:58:23.118Z,3.58
2022-11-22T09:00:50.544Z,3.62
2022-11-22T09:03:19.978Z,3.66
2022-11-22T09:08:37.764Z,3.67
2022-11-22T09:11:09.203Z,3.70
2022-11-22T09:13:36.519Z,3.79
2022-11-22T09:16:09.539Z,3.81
2022-11-22T09:18:37.266Z,3.83
2022-11-22T09:21:08.119Z,3.90
2022-11-22T09:23:36.046Z,3.94
2022-11-22T09:26:09.195Z,3.95
2022-11-22T09:28:38.962Z,3.96
2022-11-22T09:31:08.255Z,3.92
2022-11-22T09:33:37.777Z,3.93
2022-11-22T09:36:11.767Z,3.93
2022-11-22T09:38:38.914Z,3.93
2022-11-22T09:41:36.966Z,3.97
2022-11-22T09:44:28.026Z,4.03
2022-11-22T09:47:08.076Z,4.02
2022-11-22T09:49:37.964Z,4.05
2022-11-22T09:52:15.164Z,4.12
2022-11-22T09:55:10.611Z,4.20
2022-11-22T09:57:43.837Z,4.17
2022-11-22T10:00:31.395Z,4.21
2022-11-22T10:03:43.862Z,4.21
2022-11-22T10:06:34.786Z,4.30
2022-11-22T10:09:11.255Z,4.26
2022-11-22T10:12:10.126Z,4.29
2022-11-22T10:14:53.880Z,4.38
2022-11-22T10:17:36.940Z,4.43
2022-11-22T10:20:24.333Z,4.44
2022-11-22T10:22:51.903Z,4.43
2022-11-22T10:25:35.039Z,4.50
2022-11-22T10:28:16.364Z,4.49
2022-11-22T10:30:55.130Z,4.52
2022-11-22T10:33:50.522Z,4.48
2022-11-22T10:36:24.327Z,4.46
2022-11-22T10:39:03.679Z,4.45
2022-11-22T10:41:46.042Z,4.49
2022-11-22T10:44:39.254Z,4.55
2022-11-22T10:47:09.951Z,4.53
2022-11-22T10:49:51.976Z,4.57
2022-11-22T10:52:40.900Z,4.58
2022-11-22T10:55:29.405Z,4.58
2022-11-22T10:58:10.724Z,4.60
2022-11-22T11:00:43.956Z,4.54
2022-11-22T11:03:23.567Z,4.58
2022-11-22T11:06:43.593Z,4.59
2022-11-22T11:10:02.844Z,4.62
2022-11-22T11:11:56.983Z,4.59
2022-11-22T11:14:37.115Z,4.64
2022-11-22T11:17:07.205Z,4.69
2022-11-22T11:19:41.874Z,4.67
2022-11-22T11:22:08.991Z,4.69
2022-11-22T11:24:40.094Z,4.76
2022-11-22T11:27:09.353Z,4.82
2022-11-22T11:29:46.926Z,4.74
2022-11-22T11:32:16.483Z,4.77
2022-11-22T11:34:53.522Z,4.83
2022-11-22T11:37:27.551Z,4.83
2022-11-22T11:39:57.880Z,4.83
2022-11-22T11:42:35.676Z,4.91
2022-11-22T11:45:24.879Z,4.97
2022-11-22T11:47:51.826Z,4.92
2022-11-22T11:50:24.994Z,4.97
2022-11-22T11:53:04.914Z,4.98
2022-11-22T11:55:35.547Z,4.98
2022-11-22T11:58:19.600Z,4.99
2022-11-22T12:00:47.417Z,5.05
2022-11-22T12:03:19.157Z,5.08
2022-11-22T12:05:46.642Z,5.12
2022-11-22T12:08:31.752Z,5.16
2022-11-22T12:11:09.130Z,5.22
2022-11-22T12:13:51.760Z,5.26
2022-11-22T12:16:32.105Z,5.26
2022-11-22T12:19:33.105Z,5.23
2022-11-22T12:22:42.613Z,5.33
2022-11-22T12:25:34.754Z,5.31
2022-11-22T12:28:27.472Z,5.36
2022-11-22T12:31:13.596Z,5.35
2022-11-22T12:33:47.663Z,5.33
2022-11-22T12:36:40.302Z,5.33
2022-11-22T12:39:14.612Z,5.36
2022-11-22T12:41:43.199Z,5.39
2022-11-22T12:44:16.821Z,5.41
2022-11-22T12:46:52.651Z,5.45
2022-11-22T12:49:39.987Z,5.45
2022-11-22T12:52:33.691Z,5.53
2022-11-22T12:55:05.806Z,5.52
2022-11-22T12:57:42.997Z,5.60
2022-11-22T13:00:16.324Z,5.54
2022-11-22T13:03:03.503Z,5.41
2022-11-22T13:05:37.024Z,5.39
2022-11-22T13:08:31.289Z,5.46
2022-11-22T13:11:06.452Z,5.53
2022-11-22T13:13:47.483Z,5.55
2022-11-22T13:16:15.053Z,5.53
2022-11-22T13:18:49.882Z,5.52
2022-11-22T13:21:25.941Z,5.49
2022-11-22T13:24:09.578Z,5.39
2022-11-22T13:27:04.499Z,5.45
2022-11-22T13:29:34.718Z,5.44
2022-11-22T13:32:05.097Z,5.46
2022-11-22T13:34:34.253Z,5.45
2022-11-22T13:37:18.563Z,5.47
2022-11-22T13:39:49.717Z,5.48
2022-11-22T13:42:28.468Z,5.44
2022-11-22T13:44:55.342Z,5.47
2022-11-22T13:47:22.552Z,5.38
2022-11-22T13:49:54.086Z,5.37
2022-11-22T13:52:21.289Z,5.30
2022-11-22T13:54:48.281Z,5.32
2022-11-22T13:57:35.840Z,5.27
2022-11-22T14:00:14.850Z,5.27
2022-11-22T14:02:45.351Z,5.30
2022-11-22T14:05:40.946Z,5.24
2022-11-22T14:08:37.325Z,5.15
2022-11-22T14:11:53.829Z,5.18
2022-11-22T14:14:57.025Z,5.22
2022-11-22T14:17:42.706Z,5.23
2022-11-22T14:20:56.417Z,5.27
2022-11-22T14:23:33.648Z,5.22
2022-11-22T14:26:28.736Z,5.19
2022-11-22T14:29:27.785Z,5.20
2022-11-22T14:32:03.994Z,5.18
2022-11-22T14:34:31.530Z,5.18
2022-11-22T14:37:34.449Z,5.17
2022-11-22T14:40:07.823Z,5.15
2022-11-22T14:42:38.212Z,5.10
2022-11-22T14:45:11.246Z,5.10
2022-11-22T14:47:53.875Z,5.06
2022-11-22T14:50:40.466Z,5.06
2022-11-22T14:53:39.083Z,5.04
2022-11-22T14:56:26.890Z,5.03
2022-11-22T14:59:28.321Z,5.00
2022-11-22T15:02:34.702Z,4.99
2022-11-22T15:09:14.915Z,4.96
2022-11-22T15:09:19.183Z,4.94
2022-11-22T15:11:27.179Z,4.87
2022-11-22T15:14:26.528Z,4.86
2022-11-22T15:59:43.233Z,4.65
2022-11-22T16:02:25.412Z,4.62
2022-11-22T16:06:07.874Z,4.54
2022-11-22T16:07:49.238Z,4.55
2022-11-22T16:10:23.113Z,4.50
2022-11-22T16:12:51.662Z,4.46
2022-11-22T16:15:37.205Z,4.51
2022-11-22T16:18:13.605Z,4.42
2022-11-22T16:21:04.356Z,4.44
2022-11-22T16:23:35.093Z,4.42
2022-11-22T16:26:17.788Z,4.38
2022-11-22T16:28:46.725Z,4.34
2022-11-22T16:31:24.862Z,4.30
2022-11-22T16:33:54.748Z,4.26
2022-11-22T16:36:24.397Z,4.29
2022-11-22T16:38:52.318Z,4.29
2022-11-22T16:41:26.218Z,4.35
2022-11-22T16:44:02.118Z,4.34
2022-11-22T16:46:31.490Z,4.33
2022-11-22T16:49:02.206Z,4.34
2022-11-22T16:51:30.852Z,4.28
2022-11-22T16:54:08.648Z,4.24
2022-11-22T16:56:37.588Z,4.22
2022-11-22T16:59:12.705Z,4.16
2022-11-22T17:01:44.703Z,4.15
2022-11-22T17:04:26.690Z,4.08
2022-11-22T17:06:58.040Z,4.01
2022-11-22T17:09:26.233Z,3.96
2022-11-22T17:11:53.684Z,3.91
2022-11-22T17:14:22.638Z,3.86
2022-11-22T17:16:50.713Z,3.83
2022-11-22T17:19:45.490Z,3.80
2022-11-22T17:22:07.765Z,3.78
2022-11-22T17:24:36.439Z,3.80
2022-11-22T17:27:04.334Z,3.80
2022-11-22T17:32:21.899Z,3.79
2022-11-22T17:34:53.150Z,3.81
2022-11-22T17:37:25.653Z,3.82
2022-11-22T17:39:55.265Z,3.85
2022-11-22T17:42:27.605Z,3.88
2022-11-22T17:44:55.980Z,3.91
2022-11-22T17:47:24.090Z,3.95
2022-11-22T17:49:55.414Z,3.95
2022-11-22T17:52:22.946Z,3.97
2022-11-22T17:54:51.234Z,3.99
2022-11-22T17:57:21.111Z,4.01
2022-11-22T17:59:49.320Z,4.02
2022-11-22T18:02:17.402Z,4.03
2022-11-22T18:04:45.600Z,4.06
2022-11-22T18:07:16.082Z,4.07
2022-11-22T18:09:44.693Z,4.08
2022-11-22T18:12:12.330Z,4.08
2022-11-22T18:14:40.550Z,4.13
2022-11-22T18:17:08.591Z,4.14
2022-11-22T18:19:40.126Z,4.14
2022-11-22T18:22:09.547Z,4.16
2022-11-22T18:24:37.910Z,4.15
2022-11-22T18:27:05.816Z,4.15
2022-11-22T18:29:42.849Z,4.17
2022-11-22T18:32:12.342Z,4.19
2022-11-22T18:34:42.157Z,4.19
2022-11-22T18:37:10.672Z,4.19
2022-11-22T18:39:41.821Z,4.18
2022-11-22T18:42:16.418Z,4.17
2022-11-22T18:44:48.522Z,4.19
2022-11-22T18:47:17.595Z,4.20
2022-11-22T18:49:46.792Z,4.18
2022-11-22T18:52:18.152Z,4.21
2022-11-22T18:54:47.631Z,4.26
2022-11-22T18:57:15.690Z,4.25
2022-11-22T18:59:44.705Z,4.23
2022-11-22T19:02:12.867Z,4.21
2022-11-22T19:04:41.732Z,4.20
2022-11-22T19:07:09.892Z,4.18
2022-11-22T19:09:44.503Z,4.17
2022-11-22T19:12:13.487Z,4.17
2022-11-22T19:14:42.483Z,4.18
2022-11-22T19:17:10.948Z,4.17
2022-11-22T19:19:41.853Z,4.16
2022-11-22T19:22:10.244Z,4.16
2022-11-22T19:24:47.370Z,4.16
2022-11-22T19:27:20.563Z,4.17
2022-11-22T19:29:51.779Z,4.17
2022-11-22T19:32:20.133Z,4.17
2022-11-22T19:34:48.724Z,4.18
2022-11-22T19:37:17.811Z,4.18
2022-11-22T19:39:46.873Z,4.22
2022-11-22T19:42:18.013Z,4.18
2022-11-22T19:44:46.355Z,4.18
2022-11-22T19:47:14.564Z,4.17
2022-11-22T19:49:42.692Z,4.16
2022-11-22T19:52:10.813Z,4.17
2022-11-22T19:54:39.316Z,4.21
2022-11-22T19:57:07.471Z,4.17
2022-11-22T19:59:40.065Z,4.19
2022-11-22T20:02:09.621Z,4.19
2022-11-22T20:04:37.998Z,4.21
2022-11-22T20:07:06.486Z,4.18
2022-11-22T20:09:37.891Z,4.19
2022-11-22T20:12:07.270Z,4.18
2022-11-22T20:14:36.135Z,4.14
2022-11-22T20:17:03.762Z,4.15
2022-11-22T20:19:34.731Z,4.16
2022-11-22T20:22:02.895Z,4.19
2022-11-22T20:24:33.630Z,4.17
2022-11-22T20:27:04.005Z,4.17
2022-11-22T20:29:32.348Z,4.17
2022-11-22T20:32:02.448Z,4.21
2022-11-22T20:34:33.862Z,4.24
2022-11-22T20:37:04.448Z,4.24
2022-11-22T20:39:35.936Z,4.23
2022-11-22T20:42:33.092Z,4.21
2022-11-22T20:44:56.678Z,4.19
2022-11-22T20:47:24.764Z,4.17
2022-11-22T20:49:53.989Z,4.16
2022-11-22T20:52:22.479Z,4.12
2022-11-22T20:54:52.847Z,4.13
2022-11-22T20:57:21.794Z,4.12
2022-11-22T20:59:50.240Z,4.14
2022-11-22T21:02:18.107Z,4.08
2022-11-22T21:04:45.871Z,4.07
2022-11-22T21:07:13.691Z,4.10
2022-11-22T21:09:41.867Z,4.08
2022-11-22T21:12:08.972Z,4.08
2022-11-22T21:14:36.232Z,4.08
2022-11-22T21:17:22.785Z,4.07
2022-11-22T21:19:51.729Z,4.08
2022-11-22T21:22:18.943Z,4.07
2022-11-22T21:24:47.080Z,4.03
2022-11-22T21:27:14.810Z,4.00
2022-11-22T21:29:42.305Z,4.02
2022-11-22T21:32:09.917Z,4.00
2022-11-22T21:34:37.638Z,3.96
2022-11-22T21:37:04.996Z,3.97
2022-11-22T21:39:32.003Z,3.97
2022-11-22T21:41:59.285Z,3.97
2022-11-22T21:44:26.294Z,3.95
2022-11-22T21:46:53.493Z,3.96
2022-11-22T21:49:20.466Z,3.92
2022-11-22T21:51:48.533Z,3.93
2022-11-22T21:54:15.494Z,3.92
2022-11-22T21:56:42.859Z,3.90
2022-11-22T21:59:11.406Z,3.85
2022-11-22T22:01:39.103Z,3.86
2022-11-22T22:04:06.058Z,3.86
2022-11-22T22:06:33.834Z,3.80
2022-11-22T22:09:00.844Z,3.83
2022-11-22T22:11:28.611Z,3.79
2022-11-22T22:13:55.740Z,3.78
2022-11-22T22:16:24.068Z,3.79
2022-11-22T22:18:51.162Z,3.80
2022-11-22T22:21:19.585Z,3.79
2022-11-22T22:23:47.151Z,3.78
2022-11-22T22:26:17.953Z,3.77
2022-11-22T22:28:46.044Z,3.76
2022-11-22T22:31:22.789Z,3.78
2022-11-22T22:33:58.637Z,3.77
2022-11-22T22:36:26.888Z,3.78
2022-11-22T22:38:54.983Z,3.77
2022-11-22T22:41:22.464Z,3.74
2022-11-22T22:43:49.596Z,3.76
2022-11-22T22:46:24.888Z,3.76
2022-11-22T22:48:54.851Z,3.74
2022-11-22T22:51:33.236Z,3.75
2022-11-22T22:54:01.092Z,3.75
2022-11-22T22:56:30.174Z,3.75
2022-11-22T22:59:01.108Z,3.73
2022-11-22T23:01:30.553Z,3.70
2022-11-22T23:04:01.711Z,3.63
2022-11-22T23:06:31.722Z,3.66
2022-11-22T23:08:59.636Z,3.65
2022-11-22T23:11:50.282Z,3.64
2022-11-22T23:14:23.903Z,3.66
2022-11-22T23:16:57.119Z,3.63
2022-11-22T23:19:25.957Z,3.64
2022-11-22T23:21:53.641Z,3.65
2022-11-22T23:24:23.114Z,3.66
2022-11-22T23:26:50.412Z,3.66
2022-11-22T23:29:17.426Z,3.66
2022-11-22T23:31:44.711Z,3.66
2022-11-22T23:34:12.242Z,3.66
2022-11-22T23:36:41.167Z,3.64
2022-11-22T23:39:09.130Z,3.62
2022-11-22T23:41:36.454Z,3.64
2022-11-22T23:44:03.865Z,3.64
2022-11-22T23:46:31.370Z,3.62
2022-11-22T23:49:01.938Z,3.63
2022-11-22T23:51:30.874Z,3.62
2022-11-22T23:54:02.430Z,3.59
2022-11-22T23:56:31.492Z,3.59
2022-11-22T23:58:59.782Z,3.61
